createdAt,value
2022-11-06T00:01:57.142Z,5.74
2022-11-06T00:04:25.166Z,5.68
2022-11-06T00:06:52.127Z,5.46
2022-11-06T00:09:21.588Z,5.44
2022-11-06T00:11:50.495Z,5.66
2022-11-06T00:14:19.091Z,5.60
2022-11-06T00:16:49.206Z,5.31
2022-11-06T00:19:17.510Z,5.60
2022-11-06T00:21:46.090Z,5.61
2022-11-06T00:24:15.567Z,5.62
2022-11-06T00:26:43.911Z,5.66
2022-11-06T00:29:14.654Z,5.46
2022-11-06T00:31:43.164Z,5.50
2022-11-06T00:34:12.689Z,5.46
2022-11-06T00:36:40.576Z,5.11
2022-11-06T00:39:08.395Z,5.41
2022-11-06T00:41:36.377Z,5.01
2022-11-06T00:44:05.091Z,5.13
2022-11-06T00:46:33.133Z,5.44
2022-11-06T00:49:00.988Z,5.33
2022-11-06T00:51:32.742Z,5.30
2022-11-06T00:54:03.922Z,5.31
2022-11-06T00:56:32.550Z,5.38
2022-11-06T00:59:01.434Z,5.47
2022-11-06T01:01:31.730Z,5.30
2022-11-06T01:04:01.086Z,5.33
2022-11-06T01:06:32.010Z,4.96
2022-11-06T01:09:00.712Z,4.62
2022-11-06T01:11:46.441Z,5.15
2022-11-06T01:14:19.630Z,5.33
2022-11-06T01:16:47.586Z,5.17
2022-11-06T01:19:17.631Z,5.13
2022-11-06T01:21:48.213Z,5.09
2022-11-06T01:24:18.185Z,5.16
2022-11-06T01:27:05.326Z,5.20
2022-11-06T01:29:34.545Z,5.28
2022-11-06T01:32:02.452Z,5.31
2022-11-06T01:34:30.630Z,5.18
2022-11-06T01:37:00.042Z,5.01
2022-11-06T01:39:27.852Z,4.48
2022-11-06T01:41:56.268Z,4.85
2022-11-06T01:45:17.181Z,5.00
2022-11-06T01:47:45.611Z,4.78
2022-11-06T01:50:15.459Z,4.70
2022-11-06T01:52:47.641Z,4.41
2022-11-06T01:55:19.131Z,4.43
2022-11-06T01:57:48.370Z,4.55
2022-11-06T02:00:16.583Z,4.58
2022-11-06T02:02:45.188Z,4.60
2022-11-06T02:05:13.350Z,4.18
2022-11-06T02:07:43.676Z,4.44
2022-11-06T02:10:12.933Z,4.65
2022-11-06T02:12:49.688Z,4.54
2022-11-06T02:15:28.308Z,4.63
2022-11-06T02:18:13.655Z,4.52
2022-11-06T02:20:53.049Z,4.67
2022-11-06T02:23:35.382Z,4.44
2022-11-06T02:26:19.030Z,4.45
2022-11-06T02:28:54.086Z,4.31
2022-11-06T02:31:27.360Z,4.41
2022-11-06T02:34:00.537Z,4.44
2022-11-06T02:36:33.034Z,4.37
2022-11-06T02:39:06.694Z,4.68
2022-11-06T02:41:38.350Z,4.65
2022-11-06T02:44:12.872Z,4.50
2022-11-06T02:46:44.892Z,4.77
2022-11-06T02:49:18.419Z,4.62
2022-11-06T02:51:50.790Z,4.66
2022-11-06T02:54:21.165Z,4.56
2022-11-06T02:56:50.333Z,4.61
2022-11-06T02:59:23.276Z,4.54
2022-11-06T03:01:56.575Z,4.40
2022-11-06T03:04:27.916Z,4.41
2022-11-06T03:07:01.977Z,4.39
2022-11-06T03:09:32.999Z,4.35
2022-11-06T03:12:05.163Z,4.59
2022-11-06T03:14:41.657Z,4.53
2022-11-06T03:17:17.561Z,4.47
2022-11-06T03:19:49.910Z,4.63
2022-11-06T03:22:27.705Z,4.35
2022-11-06T03:25:01.614Z,4.50
2022-11-06T03:27:36.129Z,4.46
2022-11-06T03:30:10.402Z,4.49
2022-11-06T03:32:47.553Z,4.37
2022-11-06T03:35:22.965Z,4.49
2022-11-06T03:37:58.143Z,4.74
2022-11-06T03:40:30.855Z,4.54
2022-11-06T03:43:02.126Z,4.82
2022-11-06T03:45:33.672Z,4.76
2022-11-06T03:48:05.878Z,4.84
2022-11-06T03:50:37.813Z,4.81
2022-11-06T03:53:10.845Z,4.46
2022-11-06T03:55:44.253Z,4.52
2022-11-06T03:58:15.392Z,4.44
2022-11-06T04:00:45.828Z,4.43
2022-11-06T04:03:19.905Z,4.45
2022-11-06T04:05:53.022Z,4.46
2022-11-06T04:08:40.728Z,4.59
2022-11-06T04:11:29.263Z,4.44
2022-11-06T04:14:01.871Z,4.16
2022-11-06T04:16:35.937Z,4.05
2022-11-06T04:19:04.654Z,4.04
2022-11-06T04:21:46.909Z,4.24
2022-11-06T04:24:46.997Z,4.30
2022-11-06T04:27:24.720Z,4.29
2022-11-06T04:30:07.402Z,4.27
2022-11-06T04:32:57.163Z,4.18
2022-11-06T04:35:35.277Z,4.23
2022-11-06T04:38:08.045Z,4.22
2022-11-06T04:40:45.022Z,4.25
2022-11-06T04:43:20.674Z,4.11
2022-11-06T04:45:53.031Z,4.20
2022-11-06T04:48:23.391Z,4.17
2022-11-06T04:50:54.129Z,4.02
2022-11-06T04:53:22.853Z,4.03
2022-11-06T04:55:54.997Z,3.90
2022-11-06T04:58:23.102Z,3.86
2022-11-06T05:00:52.435Z,3.65
2022-11-06T05:03:21.756Z,3.44
2022-11-06T05:05:49.589Z,2.97
2022-11-06T05:08:19.330Z,2.96
2022-11-06T05:10:47.741Z,3.26
2022-11-06T05:13:16.099Z,3.40
2022-11-06T05:15:43.954Z,3.01
2022-11-06T05:18:12.210Z,2.94
2022-11-06T05:20:41.726Z,3.37
2022-11-06T05:23:08.533Z,3.42
2022-11-06T05:25:37.806Z,3.51
2022-11-06T05:28:07.121Z,3.48
2022-11-06T05:30:35.983Z,3.48
2022-11-06T05:33:03.927Z,3.11
2022-11-06T05:35:31.769Z,3.25
2022-11-06T05:38:02.188Z,3.01
2022-11-06T05:40:30.351Z,3.08
2022-11-06T05:42:58.157Z,3.13
2022-11-06T05:45:25.952Z,3.33
2022-11-06T05:47:53.791Z,3.06
2022-11-06T05:50:21.608Z,3.00
2022-11-06T05:52:49.444Z,3.16
2022-11-06T05:55:18.683Z,3.13
2022-11-06T05:57:46.639Z,2.93
2022-11-06T06:00:15.688Z,3.04
2022-11-06T06:02:44.083Z,3.04
2022-11-06T06:05:12.219Z,3.03
2022-11-06T06:07:40.044Z,2.94
2022-11-06T06:10:09.794Z,2.58
2022-11-06T06:12:39.591Z,2.53
2022-11-06T06:15:08.633Z,2.63
2022-11-06T06:17:36.645Z,2.56
2022-11-06T06:20:05.871Z,2.68
2022-11-06T06:22:33.685Z,2.50
2022-11-06T06:25:01.613Z,2.30
2022-11-06T06:27:31.302Z,2.45
2022-11-06T06:30:00.857Z,2.78
2022-11-06T06:32:28.691Z,2.84
2022-11-06T06:34:56.474Z,2.77
2022-11-06T06:37:24.332Z,2.43
2022-11-06T06:39:52.121Z,2.59
2022-11-06T06:42:19.846Z,2.67
2022-11-06T06:44:47.795Z,2.64
2022-11-06T06:47:18.156Z,2.68
2022-11-06T06:49:46.022Z,2.55
2022-11-06T06:52:13.990Z,2.59
2022-11-06T06:54:41.939Z,2.60
2022-11-06T06:57:10.084Z,2.31
2022-11-06T06:59:37.923Z,2.33
2022-11-06T07:02:05.959Z,2.30
2022-11-06T07:04:35.099Z,2.42
2022-11-06T07:07:03.040Z,2.75
2022-11-06T07:09:32.160Z,2.31
2022-11-06T07:12:00.265Z,2.40
2022-11-06T07:14:28.044Z,2.78
2022-11-06T07:16:55.847Z,3.01
2022-11-06T07:19:23.647Z,3.02
2022-11-06T07:21:53.686Z,3.25
2022-11-06T07:24:21.482Z,3.44
2022-11-06T07:26:49.913Z,3.64
2022-11-06T07:29:17.789Z,3.80
2022-11-06T07:31:48.145Z,3.80
2022-11-06T07:34:16.169Z,3.80
2022-11-06T07:36:44.018Z,4.11
2022-11-06T07:39:13.137Z,4.12
2022-11-06T07:41:40.988Z,4.14
2022-11-06T07:44:08.802Z,4.33
2022-11-06T07:46:36.691Z,4.45
2022-11-06T07:49:04.827Z,4.67
2022-11-06T07:51:33.706Z,4.87
2022-11-06T07:54:01.526Z,5.16
2022-11-06T07:56:31.063Z,5.35
2022-11-06T07:58:59.010Z,5.55
2022-11-06T08:01:27.092Z,5.72
2022-11-06T08:03:55.033Z,5.87
2022-11-06T08:06:23.182Z,5.86
2022-11-06T08:08:54.835Z,6.04
2022-11-06T08:11:25.612Z,6.37
2022-11-06T08:13:54.725Z,6.58
2022-11-06T08:16:22.580Z,6.71
2022-11-06T08:18:50.347Z,6.81
2022-11-06T08:21:19.173Z,6.99
2022-11-06T08:23:47.000Z,6.86
2022-11-06T08:26:14.886Z,6.92
2022-11-06T08:28:42.817Z,7.33
2022-11-06T08:31:12.191Z,7.56
2022-11-06T08:33:40.394Z,7.70
2022-11-06T08:36:10.180Z,7.89
2022-11-06T08:38:37.998Z,8.08
2022-11-06T08:41:06.758Z,8.43
2022-11-06T08:43:34.782Z,8.35
2022-11-06T08:46:03.385Z,8.61
2022-11-06T08:48:35.305Z,8.54
2022-11-06T08:51:04.873Z,8.55
2022-11-06T08:53:32.758Z,8.91
2022-11-06T08:56:00.710Z,8.78
2022-11-06T08:58:28.566Z,8.86
2022-11-06T09:00:56.527Z,9.02
2022-11-06T09:03:24.324Z,9.06
2022-11-06T09:05:53.532Z,9.16
2022-11-06T09:08:21.417Z,9.52
2022-11-06T09:10:50.438Z,9.52
2022-11-06T09:13:20.011Z,9.77
2022-11-06T09:15:47.791Z,9.88
2022-11-06T09:18:15.581Z,9.94
2022-11-06T09:20:43.401Z,9.87
2022-11-06T09:23:13.133Z,9.86
2022-11-06T09:25:41.123Z,10.02
2022-11-06T09:28:08.857Z,10.31
2022-11-06T09:30:36.884Z,10.61
2022-11-06T09:33:09.175Z,10.64
2022-11-06T09:35:40.147Z,10.61
2022-11-06T09:38:10.903Z,10.90
2022-11-06T09:40:44.968Z,11.13
2022-11-06T09:43:43.216Z,11.09
2022-11-06T09:46:20.096Z,11.13
2022-11-06T09:48:53.368Z,11.16
2022-11-06T09:51:30.251Z,11.17
2022-11-06T09:54:04.892Z,11.25
2022-11-06T09:56:37.912Z,10.83
2022-11-06T09:59:10.178Z,11.31
2022-11-06T10:01:44.352Z,11.66
2022-11-06T10:04:25.218Z,11.39
2022-11-06T10:06:54.394Z,11.78
2022-11-06T10:09:22.249Z,11.25
2022-11-06T10:12:08.924Z,11.38
2022-11-06T10:14:53.242Z,11.04
2022-11-06T10:17:34.742Z,11.67
2022-11-06T10:20:13.653Z,11.85
2022-11-06T10:22:43.266Z,12.27
2022-11-06T10:25:20.834Z,11.83
2022-11-06T10:28:01.946Z,12.23
2022-11-06T10:30:38.784Z,12.14
2022-11-06T10:33:19.919Z,12.24
2022-11-06T10:35:55.603Z,11.95
2022-11-06T10:38:27.190Z,12.02
2022-11-06T10:40:56.632Z,12.17
2022-11-06T10:43:33.149Z,12.12
2022-11-06T10:46:10.675Z,11.81
2022-11-06T10:48:41.912Z,11.99
2022-11-06T10:51:28.387Z,11.88
2022-11-06T10:54:06.918Z,11.78
2022-11-06T10:56:55.497Z,11.79
2022-11-06T10:59:25.913Z,12.02
2022-11-06T11:01:54.083Z,11.77
2022-11-06T11:04:21.960Z,11.92
2022-11-06T11:06:49.786Z,12.30
2022-11-06T11:09:38.622Z,11.74
2022-11-06T11:12:06.660Z,11.64
2022-11-06T11:14:35.913Z,11.97
2022-11-06T11:17:09.189Z,11.79
2022-11-06T11:19:38.725Z,11.67
2022-11-06T11:22:18.681Z,11.14
2022-11-06T11:25:01.108Z,11.19
2022-11-06T11:27:29.848Z,11.48
2022-11-06T11:29:59.361Z,11.29
2022-11-06T11:32:30.357Z,11.85
2022-11-06T11:34:59.198Z,11.68
2022-11-06T11:37:29.989Z,11.41
2022-11-06T11:40:22.405Z,11.20
2022-11-06T11:42:50.579Z,11.32
2022-11-06T11:45:21.790Z,11.13
2022-11-06T11:47:51.606Z,11.04
2022-11-06T11:50:29.708Z,10.94
2022-11-06T11:53:05.607Z,11.23
2022-11-06T11:55:41.495Z,11.10
2022-11-06T11:58:21.488Z,10.89
2022-11-06T12:00:54.416Z,10.85
2022-11-06T12:03:23.957Z,10.73
2022-11-06T12:05:53.501Z,10.65
2022-11-06T12:08:26.284Z,10.06
2022-11-06T12:10:54.271Z,10.53
2022-11-06T12:13:23.320Z,10.13
2022-11-06T12:15:57.297Z,9.74
2022-11-06T12:18:29.684Z,9.71
2022-11-06T12:21:00.931Z,10.00
2022-11-06T12:23:35.701Z,10.25
2022-11-06T12:26:10.528Z,10.00
2022-11-06T12:28:42.920Z,9.80
2022-11-06T12:31:18.699Z,9.64
2022-11-06T12:34:06.804Z,9.59
2022-11-06T12:36:42.434Z,9.35
2022-11-06T12:39:15.098Z,9.37
2022-11-06T12:41:46.866Z,9.38
2022-11-06T12:44:17.281Z,9.25
2022-11-06T12:46:49.283Z,9.15
2022-11-06T12:50:02.189Z,8.74
2022-11-06T12:52:43.666Z,9.00
2022-11-06T12:55:20.150Z,8.86
2022-11-06T12:58:03.908Z,9.00
2022-11-06T13:00:37.486Z,9.43
2022-11-06T13:03:24.647Z,9.52
2022-11-06T13:06:00.624Z,9.56
2022-11-06T13:08:37.797Z,9.57
2022-11-06T13:11:18.723Z,9.35
2022-11-06T13:14:03.158Z,9.46
2022-11-06T13:16:39.780Z,9.72
2022-11-06T13:19:15.476Z,9.46
2022-11-06T13:22:07.953Z,9.41
2022-11-06T13:24:41.395Z,9.57
2022-11-06T13:27:17.644Z,9.48
2022-11-06T13:29:46.632Z,9.41
2022-11-06T13:32:18.181Z,9.26
2022-11-06T13:34:50.581Z,9.54
2022-11-06T13:37:21.758Z,9.37
2022-11-06T13:39:54.858Z,9.53
2022-11-06T13:42:28.369Z,9.54
2022-11-06T13:44:57.456Z,9.89
2022-11-06T13:47:32.094Z,9.57
2022-11-06T13:50:09.383Z,9.52
2022-11-06T13:52:46.768Z,9.59
2022-11-06T13:55:25.295Z,9.50
2022-11-06T13:58:22.108Z,9.21
2022-11-06T14:01:04.166Z,9.30
2022-11-06T14:03:51.215Z,9.21
2022-11-06T14:06:22.854Z,9.18
2022-11-06T14:08:53.611Z,9.17
2022-11-06T14:11:26.833Z,8.98
2022-11-06T14:14:01.104Z,9.09
2022-11-06T14:16:31.895Z,9.21
2022-11-06T14:19:03.842Z,9.20
2022-11-06T14:21:47.158Z,9.24
2022-11-06T14:24:40.194Z,9.46
2022-11-06T14:27:13.035Z,9.22
2022-11-06T14:30:00.502Z,9.23
2022-11-06T14:32:43.575Z,9.05
2022-11-06T14:35:51.191Z,9.28
2022-11-06T14:38:37.876Z,9.08
2022-11-06T14:41:51.116Z,9.02
2022-11-06T14:44:39.440Z,9.11
2022-11-06T14:47:10.342Z,9.31
2022-11-06T14:49:43.793Z,9.08
2022-11-06T14:52:14.823Z,9.32
2022-11-06T14:54:53.665Z,9.39
2022-11-06T14:57:46.320Z,9.31
2022-11-06T15:00:34.251Z,9.13
2022-11-06T15:03:04.566Z,9.35
2022-11-06T15:05:41.861Z,9.38
2022-11-06T15:08:10.508Z,8.97
2022-11-06T15:10:53.846Z,8.95
2022-11-06T15:13:27.759Z,8.71
2022-11-06T15:15:59.418Z,8.61
2022-11-06T15:18:28.076Z,8.55
2022-11-06T15:20:58.196Z,8.49
2022-11-06T15:23:30.060Z,8.49
2022-11-06T15:26:09.625Z,8.37
2022-11-06T15:28:45.453Z,8.23
2022-11-06T15:31:16.861Z,8.30
2022-11-06T15:34:00.994Z,8.27
2022-11-06T15:36:33.480Z,8.17
2022-11-06T15:39:02.138Z,8.06
2022-11-06T15:41:31.349Z,7.95
2022-11-06T15:43:59.859Z,7.92
2022-11-06T15:46:29.398Z,8.04
2022-11-06T15:49:17.223Z,7.85
2022-11-06T15:51:56.039Z,7.94
2022-11-06T15:54:35.960Z,7.76
2022-11-06T15:57:14.605Z,7.71
2022-11-06T15:59:42.480Z,7.57
2022-11-06T16:02:16.840Z,7.60
2022-11-06T16:04:45.641Z,7.67
2022-11-06T16:07:14.174Z,7.63
2022-11-06T16:09:50.303Z,7.65
2022-11-06T16:12:45.584Z,7.53
2022-11-06T16:15:48.708Z,7.69
2022-11-06T16:18:22.496Z,7.62
2022-11-06T16:20:53.616Z,7.57
2022-11-06T16:23:32.457Z,7.49
2022-11-06T16:26:06.522Z,7.45
2022-11-06T16:28:36.417Z,7.59
2022-11-06T16:31:11.642Z,7.62
2022-11-06T16:33:39.446Z,7.60
2022-11-06T16:36:12.510Z,7.76
2022-11-06T16:38:43.627Z,7.64
2022-11-06T16:41:33.598Z,7.67
2022-11-06T16:44:30.784Z,7.68
2022-11-06T16:47:15.100Z,7.46
2022-11-06T16:49:48.944Z,7.65
2022-11-06T16:52:25.368Z,7.30
2022-11-06T16:54:56.633Z,7.27
2022-11-06T16:57:27.134Z,7.21
2022-11-06T17:00:01.033Z,7.28
2022-11-06T17:02:32.657Z,7.20
2022-11-06T17:05:09.189Z,7.25
2022-11-06T17:07:37.093Z,7.11
2022-11-06T17:10:27.736Z,7.19
2022-11-06T17:12:55.920Z,7.18
2022-11-06T17:15:25.219Z,7.21
2022-11-06T17:17:53.060Z,7.26
2022-11-06T17:20:20.898Z,7.22
2022-11-06T17:22:49.988Z,7.20
2022-11-06T17:25:17.844Z,7.13
2022-11-06T17:27:45.620Z,7.12
2022-11-06T17:30:15.748Z,7.14
2022-11-06T17:32:44.911Z,7.23
2022-11-06T17:35:12.702Z,7.32
2022-11-06T17:37:40.708Z,7.52
2022-11-06T17:40:09.689Z,7.41
2022-11-06T17:42:37.580Z,7.30
2022-11-06T17:45:06.021Z,7.26
2022-11-06T17:47:33.798Z,7.21
2022-11-06T17:50:02.951Z,7.21
2022-11-06T17:52:30.790Z,7.25
2022-11-06T17:54:58.692Z,7.31
2022-11-06T17:57:26.533Z,7.38
2022-11-06T17:59:54.322Z,7.41
2022-11-06T18:02:41.238Z,7.32
2022-11-06T18:05:11.513Z,7.37
2022-11-06T18:07:39.282Z,7.40
2022-11-06T18:10:08.009Z,7.48
2022-11-06T18:12:35.798Z,7.36
2022-11-06T18:15:03.585Z,7.44
2022-11-06T18:17:31.390Z,7.46
2022-11-06T18:19:59.213Z,7.45
2022-11-06T18:22:28.567Z,7.49
2022-11-06T18:24:56.365Z,7.55
2022-11-06T18:27:24.177Z,7.58
2022-11-06T18:29:51.981Z,7.58
2022-11-06T18:32:20.161Z,7.70
2022-11-06T18:34:47.974Z,7.62
2022-11-06T18:37:15.742Z,7.69
2022-11-06T18:39:44.869Z,7.76
2022-11-06T18:42:12.666Z,7.70
2022-11-06T18:44:41.441Z,7.73
2022-11-06T18:47:09.358Z,7.81
2022-11-06T18:49:37.190Z,7.79
2022-11-06T18:52:05.017Z,7.85
2022-11-06T18:54:32.934Z,7.83
2022-11-06T18:57:02.309Z,8.04
2022-11-06T18:59:30.409Z,7.94
2022-11-06T19:01:58.785Z,7.90
2022-11-06T19:04:27.861Z,7.90
2022-11-06T19:06:56.020Z,7.80
2022-11-06T19:09:23.955Z,7.82
2022-11-06T19:11:51.789Z,7.82
2022-11-06T19:14:21.005Z,7.90
2022-11-06T19:16:49.079Z,7.89
2022-11-06T19:19:25.136Z,8.10
2022-11-06T19:21:53.938Z,8.07
2022-11-06T19:24:21.915Z,7.91
2022-11-06T19:26:50.352Z,7.89
2022-11-06T19:29:18.397Z,7.92
2022-11-06T19:31:47.540Z,7.82
2022-11-06T19:34:16.664Z,7.85
2022-11-06T19:36:44.470Z,7.93
2022-11-06T19:39:15.196Z,7.86
2022-11-06T19:41:43.073Z,7.93
2022-11-06T19:44:10.946Z,7.86
2022-11-06T19:46:39.283Z,7.89
2022-11-06T19:49:10.474Z,7.95
2022-11-06T19:51:38.709Z,7.90
2022-11-06T19:54:07.628Z,8.04
2022-11-06T19:56:35.456Z,8.16
2022-11-06T19:59:03.371Z,8.26
2022-11-06T20:01:33.893Z,8.14
2022-11-06T20:04:01.965Z,8.18
2022-11-06T20:06:31.231Z,8.24
2022-11-06T20:08:59.491Z,8.15
2022-11-06T20:11:27.317Z,8.24
2022-11-06T20:13:56.103Z,8.11
2022-11-06T20:16:24.443Z,8.23
2022-11-06T20:18:55.916Z,8.12
2022-11-06T20:21:26.285Z,8.15
2022-11-06T20:23:56.283Z,8.21
2022-11-06T20:26:24.651Z,8.69
2022-11-06T20:28:52.502Z,8.65
2022-11-06T20:31:20.571Z,8.63
2022-11-06T20:33:49.102Z,8.38
2022-11-06T20:36:20.583Z,8.27
2022-11-06T20:38:48.390Z,8.27
2022-11-06T20:41:18.119Z,8.33
2022-11-06T20:43:46.642Z,8.41
2022-11-06T20:46:16.290Z,8.27
2022-11-06T20:48:45.223Z,8.32
2022-11-06T20:51:14.503Z,8.55
2022-11-06T20:53:42.341Z,8.49
2022-11-06T20:56:12.002Z,8.46
2022-11-06T20:58:41.232Z,8.42
2022-11-06T21:01:11.329Z,8.55
2022-11-06T21:03:40.331Z,8.56
2022-11-06T21:06:08.838Z,8.48
2022-11-06T21:08:38.067Z,8.49
2022-11-06T21:11:11.392Z,8.59
2022-11-06T21:13:41.436Z,8.54
2022-11-06T21:16:12.907Z,8.59
2022-11-06T21:18:41.560Z,8.49
2022-11-06T21:21:11.787Z,8.56
2022-11-06T21:23:40.292Z,8.53
2022-11-06T21:26:09.903Z,8.77
2022-11-06T21:28:39.109Z,8.62
2022-11-06T21:31:12.054Z,8.53
2022-11-06T21:33:41.748Z,8.61
2022-11-06T21:36:12.189Z,8.78
2022-11-06T21:38:40.591Z,8.87
2022-11-06T21:41:09.893Z,8.74
2022-11-06T21:43:38.959Z,8.73
2022-11-06T21:46:09.171Z,8.74
2022-11-06T21:48:46.365Z,8.75
2022-11-06T21:51:16.680Z,8.96
2022-11-06T21:54:01.952Z,8.94
2022-11-06T21:56:29.832Z,9.00
2022-11-06T21:58:59.533Z,9.22
2022-11-06T22:01:28.842Z,9.01
2022-11-06T22:03:58.189Z,9.17
2022-11-06T22:06:27.481Z,9.32
2022-11-06T22:08:56.813Z,9.31
2022-11-06T22:11:27.024Z,9.20
2022-11-06T22:13:56.888Z,9.33
2022-11-06T22:16:26.824Z,9.25
2022-11-06T22:18:55.062Z,9.22
2022-11-06T22:21:25.920Z,9.00
2022-11-06T22:23:54.582Z,9.04
2022-11-06T22:26:25.303Z,8.88
2022-11-06T22:28:53.983Z,8.94
2022-11-06T22:31:21.759Z,8.72
2022-11-06T22:33:53.727Z,8.65
2022-11-06T22:36:22.976Z,8.61
2022-11-06T22:38:52.227Z,8.46
2022-11-06T22:41:22.790Z,8.40
2022-11-06T22:43:50.711Z,8.42
2022-11-06T22:46:20.597Z,8.39
2022-11-06T22:48:48.871Z,8.19
2022-11-06T22:51:18.434Z,8.32
2022-11-06T22:53:46.359Z,8.43
2022-11-06T22:56:15.535Z,8.47
2022-11-06T22:58:43.671Z,8.20
2022-11-06T23:01:12.628Z,8.63
2022-11-06T23:03:41.148Z,8.35
2022-11-06T23:06:10.654Z,8.35
2022-11-06T23:08:44.145Z,8.16
2022-11-06T23:11:17.188Z,8.23
2022-11-06T23:13:45.699Z,8.30
2022-11-06T23:16:15.446Z,8.40
2022-11-06T23:18:43.971Z,8.27
2022-11-06T23:21:13.252Z,7.84
2022-11-06T23:23:41.178Z,7.90
2022-11-06T23:26:13.376Z,8.33
2022-11-06T23:28:43.316Z,8.36
2022-11-06T23:31:13.620Z,8.42
2022-11-06T23:33:41.758Z,8.42
2022-11-06T23:36:10.882Z,7.99
2022-11-06T23:38:39.151Z,8.43
2022-11-06T23:41:28.356Z,8.09
2022-11-06T23:43:58.608Z,8.01
2022-11-06T23:46:28.124Z,8.16
2022-11-06T23:48:56.413Z,8.16
2022-11-06T23:51:25.915Z,8.05
2022-11-06T23:53:54.452Z,8.29
2022-11-06T23:56:22.397Z,8.42
2022-11-06T23:58:50.222Z,8.43
